sensor_id;sensor_type;location;lat;lon;timestamp;P1;durP1;ratioP1;P2;durP2;ratioP2
43311;SDS011;30041;48.300;16.352;2023-08-24T00:00:08;5.80;;;4.60;;
43311;SDS011;30041;48.300;16.352;2023-08-24T00:02:34;5.57;;;4.50;;
43311;SDS011;30041;48.300;16.352;2023-08-24T00:04:59;5.20;;;4.70;;
43311;SDS011;30041;48.300;16.352;2023-08-24T00:07:25;5.18;;;4.53;;
43311;SDS011;30041;48.300;16.352;2023-08-24T00:09:52;5.53;;;4.50;;
43311;SDS011;30041;48.300;16.352;2023-08-24T00:12:18;5.28;;;4.78;;
43311;SDS011;30041;48.300;16.352;2023-08-24T00:14:43;7.28;;;4.80;;
43311;SDS011;30041;48.300;16.352;2023-08-24T00:17:08;5.82;;;4.30;;
43311;SDS011;30041;48.300;16.352;2023-08-24T00:19:34;7.18;;;4.40;;
43311;SDS011;30041;48.300;16.352;2023-08-24T00:21:59;5.57;;;4.60;;
43311;SDS011;30041;48.300;16.352;2023-08-24T00:24:24;5.90;;;4.32;;
43311;SDS011;30041;48.300;16.352;2023-08-24T00:26:50;6.50;;;4.72;;
43311;SDS011;30041;48.300;16.352;2023-08-24T00:29:15;4.78;;;4.00;;
43311;SDS011;30041;48.300;16.352;2023-08-24T00:31:41;7.18;;;4.60;;
43311;SDS011;30041;48.300;16.352;2023-08-24T00:34:06;7.63;;;4.53;;
43311;SDS011;30041;48.300;16.352;2023-08-24T00:36:31;6.05;;;4.70;;
43311;SDS011;30041;48.300;16.352;2023-08-24T00:38:57;4.97;;;4.47;;
43311;SDS011;30041;48.300;16.352;2023-08-24T00:41:22;7.60;;;4.63;;
43311;SDS011;30041;48.300;16.352;2023-08-24T00:43:48;6.72;;;5.03;;
43311;SDS011;30041;48.300;16.352;2023-08-24T00:46:13;5.22;;;4.65;;
43311;SDS011;30041;48.300;16.352;2023-08-24T00:48:39;5.70;;;4.57;;
43311;SDS011;30041;48.300;16.352;2023-08-24T00:51:05;6.68;;;4.50;;
43311;SDS011;30041;48.300;16.352;2023-08-24T00:53:30;8.73;;;4.57;;
43311;SDS011;30041;48.300;16.352;2023-08-24T00:55:57;5.15;;;4.50;;
43311;SDS011;30041;48.300;16.352;2023-08-24T00:58:23;6.50;;;4.63;;
43311;SDS011;30041;48.300;16.352;2023-08-24T01:00:49;6.63;;;4.68;;
43311;SDS011;30041;48.300;16.352;2023-08-24T01:03:17;6.20;;;4.55;;
43311;SDS011;30041;48.300;16.352;2023-08-24T01:05:43;6.65;;;4.35;;
43311;SDS011;30041;48.300;16.352;2023-08-24T01:08:09;8.43;;;4.57;;
43311;SDS011;30041;48.300;16.352;2023-08-24T01:14:29;6.65;;;4.88;;
43311;SDS011;30041;48.300;16.352;2023-08-24T01:16:36;8.48;;;4.35;;
43311;SDS011;30041;48.300;16.352;2023-08-24T01:19:07;6.60;;;4.60;;
43311;SDS011;30041;48.300;16.352;2023-08-24T01:21:42;6.57;;;4.82;;
43311;SDS011;30041;48.300;16.352;2023-08-24T01:24:12;6.13;;;4.50;;
43311;SDS011;30041;48.300;16.352;2023-08-24T01:26:43;8.53;;;5.00;;
43311;SDS011;30041;48.300;16.352;2023-08-24T01:29:09;6.78;;;4.40;;
43311;SDS011;30041;48.300;16.352;2023-08-24T01:31:35;7.57;;;4.88;;
43311;SDS011;30041;48.300;16.352;2023-08-24T01:34:01;7.10;;;4.90;;
43311;SDS011;30041;48.300;16.352;2023-08-24T01:36:26;6.60;;;4.88;;
43311;SDS011;30041;48.300;16.352;2023-08-24T01:39:03;6.22;;;4.97;;
43311;SDS011;30041;48.300;16.352;2023-08-24T01:41:36;6.10;;;4.30;;
43311;SDS011;30041;48.300;16.352;2023-08-24T01:44:02;5.28;;;4.00;;
43311;SDS011;30041;48.300;16.352;2023-08-24T01:46:28;5.63;;;4.38;;
43311;SDS011;30041;48.300;16.352;2023-08-24T01:48:57;8.63;;;5.20;;
43311;SDS011;30041;48.300;16.352;2023-08-24T01:51:24;5.85;;;4.80;;
43311;SDS011;30041;48.300;16.352;2023-08-24T01:53:50;5.60;;;4.70;;
43311;SDS011;30041;48.300;16.352;2023-08-24T01:56:18;6.10;;;5.03;;
43311;SDS011;30041;48.300;16.352;2023-08-24T01:58:43;5.75;;;4.65;;
43311;SDS011;30041;48.300;16.352;2023-08-24T02:01:08;5.90;;;4.72;;
43311;SDS011;30041;48.300;16.352;2023-08-24T02:03:34;6.05;;;4.78;;
43311;SDS011;30041;48.300;16.352;2023-08-24T02:06:00;5.60;;;4.63;;
43311;SDS011;30041;48.300;16.352;2023-08-24T02:08:25;5.75;;;4.57;;
43311;SDS011;30041;48.300;16.352;2023-08-24T02:10:51;7.18;;;4.78;;
43311;SDS011;30041;48.300;16.352;2023-08-24T02:13:16;6.38;;;4.65;;
43311;SDS011;30041;48.300;16.352;2023-08-24T02:15:42;6.63;;;4.90;;
43311;SDS011;30041;48.300;16.352;2023-08-24T02:18:07;6.43;;;4.68;;
43311;SDS011;30041;48.300;16.352;2023-08-24T02:20:36;5.68;;;4.82;;
43311;SDS011;30041;48.300;16.352;2023-08-24T02:23:05;5.75;;;4.43;;
43311;SDS011;30041;48.300;16.352;2023-08-24T02:25:31;6.03;;;4.57;;
43311;SDS011;30041;48.300;16.352;2023-08-24T02:27:57;8.18;;;4.85;;
43311;SDS011;30041;48.300;16.352;2023-08-24T02:30:22;8.43;;;4.85;;
43311;SDS011;30041;48.300;16.352;2023-08-24T02:32:47;5.13;;;4.60;;
43311;SDS011;30041;48.300;16.352;2023-08-24T02:35:13;5.70;;;4.65;;
43311;SDS011;30041;48.300;16.352;2023-08-24T02:37:38;6.88;;;4.93;;
43311;SDS011;30041;48.300;16.352;2023-08-24T02:40:04;7.70;;;4.72;;
43311;SDS011;30041;48.300;16.352;2023-08-24T02:42:30;6.10;;;4.80;;
43311;SDS011;30041;48.300;16.352;2023-08-24T02:44:56;6.20;;;4.95;;
43311;SDS011;30041;48.300;16.352;2023-08-24T02:47:22;8.15;;;5.00;;
43311;SDS011;30041;48.300;16.352;2023-08-24T02:49:47;6.47;;;4.78;;
43311;SDS011;30041;48.300;16.352;2023-08-24T02:52:12;7.57;;;4.65;;
43311;SDS011;30041;48.300;16.352;2023-08-24T02:54:38;9.77;;;4.63;;
43311;SDS011;30041;48.300;16.352;2023-08-24T02:57:03;7.95;;;4.85;;
43311;SDS011;30041;48.300;16.352;2023-08-24T02:59:28;7.22;;;4.80;;
43311;SDS011;30041;48.300;16.352;2023-08-24T03:01:54;6.35;;;4.80;;
43311;SDS011;30041;48.300;16.352;2023-08-24T03:04:19;7.03;;;4.75;;
43311;SDS011;30041;48.300;16.352;2023-08-24T03:06:45;6.63;;;4.50;;
43311;SDS011;30041;48.300;16.352;2023-08-24T03:09:10;6.20;;;5.00;;
43311;SDS011;30041;48.300;16.352;2023-08-24T03:11:35;8.80;;;4.80;;
43311;SDS011;30041;48.300;16.352;2023-08-24T03:14:01;7.50;;;5.07;;
43311;SDS011;30041;48.300;16.352;2023-08-24T03:16:26;6.15;;;4.85;;
43311;SDS011;30041;48.300;16.352;2023-08-24T03:18:52;6.80;;;4.78;;
43311;SDS011;30041;48.300;16.352;2023-08-24T03:21:17;5.78;;;5.00;;
43311;SDS011;30041;48.300;16.352;2023-08-24T03:23:42;7.20;;;4.78;;
43311;SDS011;30041;48.300;16.352;2023-08-24T03:26:08;6.55;;;4.85;;
43311;SDS011;30041;48.300;16.352;2023-08-24T03:28:33;7.18;;;5.15;;
43311;SDS011;30041;48.300;16.352;2023-08-24T03:30:58;7.38;;;4.50;;
43311;SDS011;30041;48.300;16.352;2023-08-24T03:33:25;7.10;;;4.85;;
43311;SDS011;30041;48.300;16.352;2023-08-24T03:35:50;7.78;;;4.60;;
43311;SDS011;30041;48.300;16.352;2023-08-24T03:38:16;6.25;;;4.78;;
43311;SDS011;30041;48.300;16.352;2023-08-24T03:40:41;6.45;;;5.00;;
43311;SDS011;30041;48.300;16.352;2023-08-24T03:43:06;7.63;;;5.03;;
43311;SDS011;30041;48.300;16.352;2023-08-24T03:45:32;5.18;;;4.60;;
43311;SDS011;30041;48.300;16.352;2023-08-24T03:47:57;8.05;;;4.78;;
43311;SDS011;30041;48.300;16.352;2023-08-24T03:50:23;7.32;;;5.40;;
43311;SDS011;30041;48.300;16.352;2023-08-24T03:52:51;6.07;;;5.05;;
43311;SDS011;30041;48.300;16.352;2023-08-24T03:55:17;6.45;;;4.82;;
43311;SDS011;30041;48.300;16.352;2023-08-24T03:57:43;6.47;;;5.20;;
43311;SDS011;30041;48.300;16.352;2023-08-24T04:00:08;7.38;;;5.22;;
43311;SDS011;30041;48.300;16.352;2023-08-24T04:02:34;7.50;;;5.22;;
43311;SDS011;30041;48.300;16.352;2023-08-24T04:04:59;6.60;;;4.85;;
43311;SDS011;30041;48.300;16.352;2023-08-24T04:07:25;6.80;;;5.13;;
43311;SDS011;30041;48.300;16.352;2023-08-24T04:09:50;5.78;;;4.70;;
43311;SDS011;30041;48.300;16.352;2023-08-24T04:12:16;6.10;;;5.00;;
43311;SDS011;30041;48.300;16.352;2023-08-24T04:14:41;5.13;;;4.40;;
43311;SDS011;30041;48.300;16.352;2023-08-24T04:17:07;8.77;;;4.88;;
43311;SDS011;30041;48.300;16.352;2023-08-24T04:19:32;9.45;;;5.05;;
43311;SDS011;30041;48.300;16.352;2023-08-24T04:21:58;6.50;;;5.22;;
43311;SDS011;30041;48.300;16.352;2023-08-24T04:24:23;8.80;;;5.13;;
43311;SDS011;30041;48.300;16.352;2023-08-24T04:26:48;6.85;;;5.05;;
43311;SDS011;30041;48.300;16.352;2023-08-24T04:29:14;7.70;;;4.80;;
43311;SDS011;30041;48.300;16.352;2023-08-24T04:31:39;9.00;;;5.30;;
43311;SDS011;30041;48.300;16.352;2023-08-24T04:34:04;7.88;;;4.85;;
43311;SDS011;30041;48.300;16.352;2023-08-24T04:36:30;6.57;;;4.75;;
43311;SDS011;30041;48.300;16.352;2023-08-24T04:38:55;6.65;;;5.20;;
43311;SDS011;30041;48.300;16.352;2023-08-24T04:41:21;6.18;;;4.70;;
43311;SDS011;30041;48.300;16.352;2023-08-24T04:43:46;7.07;;;5.07;;
43311;SDS011;30041;48.300;16.352;2023-08-24T04:46:11;6.07;;;4.63;;
43311;SDS011;30041;48.300;16.352;2023-08-24T04:48:37;7.72;;;4.95;;
43311;SDS011;30041;48.300;16.352;2023-08-24T04:51:04;7.05;;;4.75;;
43311;SDS011;30041;48.300;16.352;2023-08-24T04:53:29;6.03;;;4.68;;
43311;SDS011;30041;48.300;16.352;2023-08-24T04:55:55;6.53;;;4.72;;
43311;SDS011;30041;48.300;16.352;2023-08-24T04:58:21;6.47;;;5.22;;
43311;SDS011;30041;48.300;16.352;2023-08-24T05:00:47;8.07;;;5.50;;
43311;SDS011;30041;48.300;16.352;2023-08-24T05:03:13;6.50;;;4.88;;
43311;SDS011;30041;48.300;16.352;2023-08-24T05:05:38;6.80;;;4.72;;
43311;SDS011;30041;48.300;16.352;2023-08-24T05:08:04;8.45;;;5.20;;
43311;SDS011;30041;48.300;16.352;2023-08-24T05:10:31;7.45;;;5.30;;
43311;SDS011;30041;48.300;16.352;2023-08-24T05:12:58;8.80;;;5.30;;
43311;SDS011;30041;48.300;16.352;2023-08-24T05:15:24;6.80;;;5.07;;
43311;SDS011;30041;48.300;16.352;2023-08-24T05:17:50;10.88;;;5.32;;
43311;SDS011;30041;48.300;16.352;2023-08-24T05:20:15;7.07;;;4.65;;
43311;SDS011;30041;48.300;16.352;2023-08-24T05:22:41;7.38;;;5.55;;
43311;SDS011;30041;48.300;16.352;2023-08-24T05:25:06;7.10;;;5.50;;
43311;SDS011;30041;48.300;16.352;2023-08-24T05:27:32;11.02;;;5.70;;
43311;SDS011;30041;48.300;16.352;2023-08-24T05:29:57;11.43;;;5.60;;
43311;SDS011;30041;48.300;16.352;2023-08-24T05:32:23;9.25;;;5.60;;
43311;SDS011;30041;48.300;16.352;2023-08-24T05:34:49;12.95;;;5.70;;
43311;SDS011;30041;48.300;16.352;2023-08-24T05:37:14;16.85;;;6.47;;
43311;SDS011;30041;48.300;16.352;2023-08-24T05:39:40;13.88;;;6.50;;
43311;SDS011;30041;48.300;16.352;2023-08-24T05:42:05;12.70;;;6.13;;
43311;SDS011;30041;48.300;16.352;2023-08-24T05:44:31;14.63;;;7.35;;
43311;SDS011;30041;48.300;16.352;2023-08-24T05:46:57;17.40;;;7.80;;
43311;SDS011;30041;48.300;16.352;2023-08-24T05:49:22;14.35;;;7.00;;
43311;SDS011;30041;48.300;16.352;2023-08-24T05:51:51;14.48;;;7.55;;
43311;SDS011;30041;48.300;16.352;2023-08-24T05:54:17;14.15;;;6.75;;
43311;SDS011;30041;48.300;16.352;2023-08-24T05:56:43;14.35;;;7.05;;
43311;SDS011;30041;48.300;16.352;2023-08-24T05:59:08;16.80;;;7.53;;
43311;SDS011;30041;48.300;16.352;2023-08-24T06:01:34;13.88;;;7.22;;
43311;SDS011;30041;48.300;16.352;2023-08-24T06:03:59;10.55;;;6.72;;
43311;SDS011;30041;48.300;16.352;2023-08-24T06:06:24;16.67;;;6.95;;
43311;SDS011;30041;48.300;16.352;2023-08-24T06:08:50;10.68;;;7.78;;
43311;SDS011;30041;48.300;16.352;2023-08-24T06:11:15;14.07;;;8.05;;
43311;SDS011;30041;48.300;16.352;2023-08-24T06:13:41;12.10;;;8.02;;
43311;SDS011;30041;48.300;16.352;2023-08-24T06:16:06;10.50;;;8.25;;
43311;SDS011;30041;48.300;16.352;2023-08-24T06:18:32;20.88;;;8.23;;
43311;SDS011;30041;48.300;16.352;2023-08-24T06:20:57;17.20;;;8.85;;
43311;SDS011;30041;48.300;16.352;2023-08-24T06:23:22;16.98;;;8.90;;
43311;SDS011;30041;48.300;16.352;2023-08-24T06:25:48;11.60;;;8.27;;
43311;SDS011;30041;48.300;16.352;2023-08-24T06:28:13;13.70;;;8.57;;
43311;SDS011;30041;48.300;16.352;2023-08-24T06:30:39;18.52;;;9.30;;
43311;SDS011;30041;48.300;16.352;2023-08-24T06:33:06;14.07;;;9.07;;
43311;SDS011;30041;48.300;16.352;2023-08-24T06:35:32;14.20;;;8.48;;
43311;SDS011;30041;48.300;16.352;2023-08-24T06:37:58;12.13;;;8.23;;
43311;SDS011;30041;48.300;16.352;2023-08-24T06:40:24;14.27;;;8.80;;
43311;SDS011;30041;48.300;16.352;2023-08-24T06:42:49;11.25;;;8.35;;
43311;SDS011;30041;48.300;16.352;2023-08-24T06:45:14;13.30;;;8.82;;
43311;SDS011;30041;48.300;16.352;2023-08-24T06:47:41;15.05;;;8.55;;
43311;SDS011;30041;48.300;16.352;2023-08-24T06:50:06;15.32;;;8.15;;
43311;SDS011;30041;48.300;16.352;2023-08-24T06:52:32;13.95;;;8.48;;
43311;SDS011;30041;48.300;16.352;2023-08-24T06:54:58;14.55;;;8.00;;
43311;SDS011;30041;48.300;16.352;2023-08-24T06:57:24;11.93;;;8.57;;
43311;SDS011;30041;48.300;16.352;2023-08-24T06:59:50;11.23;;;7.65;;
43311;SDS011;30041;48.300;16.352;2023-08-24T07:02:15;17.35;;;8.50;;
43311;SDS011;30041;48.300;16.352;2023-08-24T07:04:40;11.10;;;8.25;;
43311;SDS011;30041;48.300;16.352;2023-08-24T07:07:06;11.15;;;8.25;;
43311;SDS011;30041;48.300;16.352;2023-08-24T07:09:31;12.07;;;7.38;;
43311;SDS011;30041;48.300;16.352;2023-08-24T07:11:57;10.52;;;6.72;;
43311;SDS011;30041;48.300;16.352;2023-08-24T07:14:23;10.57;;;7.00;;
43311;SDS011;30041;48.300;16.352;2023-08-24T07:16:48;10.93;;;6.53;;
43311;SDS011;30041;48.300;16.352;2023-08-24T07:19:14;9.85;;;6.43;;
43311;SDS011;30041;48.300;16.352;2023-08-24T07:21:39;9.57;;;6.35;;
43311;SDS011;30041;48.300;16.352;2023-08-24T07:24:05;8.85;;;6.20;;
43311;SDS011;30041;48.300;16.352;2023-08-24T07:26:30;9.68;;;6.60;;
43311;SDS011;30041;48.300;16.352;2023-08-24T07:28:56;8.93;;;5.85;;
43311;SDS011;30041;48.300;16.352;2023-08-24T07:31:22;8.55;;;6.50;;
43311;SDS011;30041;48.300;16.352;2023-08-24T07:33:47;8.30;;;5.70;;
43311;SDS011;30041;48.300;16.352;2023-08-24T07:36:13;9.18;;;5.72;;
43311;SDS011;30041;48.300;16.352;2023-08-24T07:38:39;10.85;;;5.95;;
43311;SDS011;30041;48.300;16.352;2023-08-24T07:41:04;8.30;;;5.20;;
43311;SDS011;30041;48.300;16.352;2023-08-24T07:43:30;8.07;;;5.18;;
43311;SDS011;30041;48.300;16.352;2023-08-24T07:45:55;6.80;;;5.18;;
43311;SDS011;30041;48.300;16.352;2023-08-24T07:48:21;7.30;;;5.60;;
43311;SDS011;30041;48.300;16.352;2023-08-24T07:50:46;8.93;;;5.07;;
43311;SDS011;30041;48.300;16.352;2023-08-24T07:53:11;7.65;;;4.97;;
43311;SDS011;30041;48.300;16.352;2023-08-24T07:55:37;5.70;;;5.10;;
43311;SDS011;30041;48.300;16.352;2023-08-24T07:58:02;8.65;;;5.45;;
43311;SDS011;30041;48.300;16.352;2023-08-24T08:00:28;5.95;;;4.88;;
43311;SDS011;30041;48.300;16.352;2023-08-24T08:02:53;5.85;;;4.95;;
43311;SDS011;30041;48.300;16.352;2023-08-24T08:05:19;8.57;;;5.60;;
43311;SDS011;30041;48.300;16.352;2023-08-24T08:07:44;6.60;;;5.00;;
43311;SDS011;30041;48.300;16.352;2023-08-24T08:10:09;5.10;;;4.57;;
43311;SDS011;30041;48.300;16.352;2023-08-24T08:12:35;6.15;;;4.75;;
43311;SDS011;30041;48.300;16.352;2023-08-24T08:15:00;7.82;;;4.80;;
43311;SDS011;30041;48.300;16.352;2023-08-24T08:17:26;6.05;;;4.75;;
43311;SDS011;30041;48.300;16.352;2023-08-24T08:19:55;5.90;;;4.53;;
43311;SDS011;30041;48.300;16.352;2023-08-24T08:22:21;5.32;;;4.53;;
43311;SDS011;30041;48.300;16.352;2023-08-24T08:24:47;5.57;;;4.80;;
43311;SDS011;30041;48.300;16.352;2023-08-24T08:27:12;5.50;;;4.50;;
43311;SDS011;30041;48.300;16.352;2023-08-24T08:29:37;5.22;;;4.20;;
43311;SDS011;30041;48.300;16.352;2023-08-24T08:32:03;5.25;;;4.75;;
43311;SDS011;30041;48.300;16.352;2023-08-24T08:34:28;4.95;;;4.10;;
43311;SDS011;30041;48.300;16.352;2023-08-24T08:36:54;4.80;;;4.30;;
43311;SDS011;30041;48.300;16.352;2023-08-24T08:39:19;4.82;;;4.32;;
43311;SDS011;30041;48.300;16.352;2023-08-24T08:41:44;5.35;;;4.38;;
43311;SDS011;30041;48.300;16.352;2023-08-24T08:44:12;5.72;;;4.30;;
43311;SDS011;30041;48.300;16.352;2023-08-24T08:46:42;4.72;;;4.22;;
43311;SDS011;30041;48.300;16.352;2023-08-24T08:49:08;6.20;;;4.25;;
43311;SDS011;30041;48.300;16.352;2023-08-24T08:51:37;4.70;;;3.83;;
43311;SDS011;30041;48.300;16.352;2023-08-24T08:54:04;4.85;;;4.30;;
43311;SDS011;30041;48.300;16.352;2023-08-24T08:56:30;6.13;;;3.90;;
43311;SDS011;30041;48.300;16.352;2023-08-24T08:58:56;4.53;;;4.13;;
43311;SDS011;30041;48.300;16.352;2023-08-24T09:01:24;5.00;;;4.00;;
43311;SDS011;30041;48.300;16.352;2023-08-24T09:03:50;4.18;;;3.65;;
43311;SDS011;30041;48.300;16.352;2023-08-24T09:06:17;5.82;;;3.90;;
43311;SDS011;30041;48.300;16.352;2023-08-24T09:08:42;5.38;;;3.90;;
43311;SDS011;30041;48.300;16.352;2023-08-24T09:11:09;5.03;;;3.90;;
43311;SDS011;30041;48.300;16.352;2023-08-24T09:13:35;4.85;;;3.75;;
43311;SDS011;30041;48.300;16.352;2023-08-24T09:16:05;4.68;;;3.80;;
43311;SDS011;30041;48.300;16.352;2023-08-24T09:18:36;4.35;;;3.78;;
43311;SDS011;30041;48.300;16.352;2023-08-24T09:21:12;3.95;;;3.55;;
43311;SDS011;30041;48.300;16.352;2023-08-24T09:23:38;4.07;;;3.67;;
43311;SDS011;30041;48.300;16.352;2023-08-24T09:26:17;4.15;;;3.75;;
43311;SDS011;30041;48.300;16.352;2023-08-24T09:28:54;3.95;;;3.40;;
43311;SDS011;30041;48.300;16.352;2023-08-24T09:31:20;4.20;;;3.80;;
43311;SDS011;30041;48.300;16.352;2023-08-24T09:33:46;5.75;;;3.70;;
43311;SDS011;30041;48.300;16.352;2023-08-24T09:36:13;3.83;;;3.42;;
43311;SDS011;30041;48.300;16.352;2023-08-24T09:38:45;4.03;;;3.42;;
43311;SDS011;30041;48.300;16.352;2023-08-24T09:41:11;3.78;;;3.33;;
43311;SDS011;30041;48.300;16.352;2023-08-24T09:43:37;4.22;;;3.35;;
43311;SDS011;30041;48.300;16.352;2023-08-24T09:46:02;4.03;;;3.60;;
43311;SDS011;30041;48.300;16.352;2023-08-24T09:48:28;4.30;;;3.10;;
43311;SDS011;30041;48.300;16.352;2023-08-24T09:50:53;4.65;;;3.70;;
43311;SDS011;30041;48.300;16.352;2023-08-24T09:53:22;3.80;;;3.30;;
43311;SDS011;30041;48.300;16.352;2023-08-24T09:56:01;3.95;;;3.15;;
43311;SDS011;30041;48.300;16.352;2023-08-24T09:58:27;4.03;;;3.63;;
43311;SDS011;30041;48.300;16.352;2023-08-24T10:00:53;3.45;;;3.15;;
43311;SDS011;30041;48.300;16.352;2023-08-24T10:03:20;3.42;;;3.10;;
43311;SDS011;30041;48.300;16.352;2023-08-24T10:05:52;3.53;;;3.20;;
43311;SDS011;30041;48.300;16.352;2023-08-24T10:08:20;4.20;;;3.13;;
43311;SDS011;30041;48.300;16.352;2023-08-24T10:10:47;3.72;;;3.33;;
43311;SDS011;30041;48.300;16.352;2023-08-24T10:14:04;4.20;;;3.25;;
43311;SDS011;30041;48.300;16.352;2023-08-24T10:16:12;6.15;;;3.53;;
43311;SDS011;30041;48.300;16.352;2023-08-24T10:18:39;3.78;;;3.15;;
43311;SDS011;30041;48.300;16.352;2023-08-24T10:21:06;3.50;;;2.88;;
43311;SDS011;30041;48.300;16.352;2023-08-24T10:23:32;3.85;;;3.00;;
43311;SDS011;30041;48.300;16.352;2023-08-24T10:25:59;4.07;;;3.03;;
43311;SDS011;30041;48.300;16.352;2023-08-24T10:28:28;3.78;;;2.75;;
43311;SDS011;30041;48.300;16.352;2023-08-24T10:30:54;3.88;;;3.10;;
43311;SDS011;30041;48.300;16.352;2023-08-24T10:33:22;3.38;;;2.80;;
43311;SDS011;30041;48.300;16.352;2023-08-24T10:35:49;4.38;;;2.90;;
43311;SDS011;30041;48.300;16.352;2023-08-24T10:38:27;3.67;;;3.30;;
43311;SDS011;30041;48.300;16.352;2023-08-24T10:40:54;3.33;;;2.90;;
43311;SDS011;30041;48.300;16.352;2023-08-24T10:43:26;3.30;;;2.72;;
43311;SDS011;30041;48.300;16.352;2023-08-24T10:46:00;3.45;;;2.58;;
43311;SDS011;30041;48.300;16.352;2023-08-24T10:49:18;3.63;;;2.80;;
43311;SDS011;30041;48.300;16.352;2023-08-24T10:53:41;3.10;;;2.80;;
43311;SDS011;30041;48.300;16.352;2023-08-24T10:56:12;3.80;;;3.05;;
43311;SDS011;30041;48.300;16.352;2023-08-24T10:58:39;3.17;;;2.70;;
43311;SDS011;30041;48.300;16.352;2023-08-24T11:01:05;3.38;;;2.80;;
43311;SDS011;30041;48.300;16.352;2023-08-24T11:03:31;3.20;;;2.75;;
43311;SDS011;30041;48.300;16.352;2023-08-24T11:05:57;5.18;;;3.40;;
43311;SDS011;30041;48.300;16.352;2023-08-24T11:08:22;3.45;;;2.78;;
43311;SDS011;30041;48.300;16.352;2023-08-24T11:11:18;3.20;;;2.90;;
43311;SDS011;30041;48.300;16.352;2023-08-24T11:16:44;4.22;;;2.70;;
43311;SDS011;30041;48.300;16.352;2023-08-24T11:19:11;3.28;;;2.72;;
43311;SDS011;30041;48.300;16.352;2023-08-24T11:21:37;2.95;;;2.65;;
43311;SDS011;30041;48.300;16.352;2023-08-24T11:24:04;3.67;;;3.08;;
43311;SDS011;30041;48.300;16.352;2023-08-24T11:26:31;3.15;;;2.85;;
43311;SDS011;30041;48.300;16.352;2023-08-24T11:28:56;2.78;;;2.50;;
43311;SDS011;30041;48.300;16.352;2023-08-24T11:31:22;3.20;;;2.90;;
43311;SDS011;30041;48.300;16.352;2023-08-24T11:33:48;3.50;;;2.90;;
43311;SDS011;30041;48.300;16.352;2023-08-24T11:36:13;7.25;;;2.92;;
43311;SDS011;30041;48.300;16.352;2023-08-24T11:38:39;3.92;;;2.97;;
43311;SDS011;30041;48.300;16.352;2023-08-24T11:41:13;3.90;;;2.53;;
43311;SDS011;30041;48.300;16.352;2023-08-24T11:43:39;3.67;;;2.70;;
43311;SDS011;30041;48.300;16.352;2023-08-24T11:46:05;3.95;;;2.75;;
43311;SDS011;30041;48.300;16.352;2023-08-24T11:48:31;4.57;;;2.80;;
43311;SDS011;30041;48.300;16.352;2023-08-24T11:50:59;3.45;;;2.80;;
43311;SDS011;30041;48.300;16.352;2023-08-24T11:53:25;3.35;;;2.50;;
43311;SDS011;30041;48.300;16.352;2023-08-24T11:55:54;2.97;;;2.55;;
43311;SDS011;30041;48.300;16.352;2023-08-24T11:58:20;2.63;;;2.33;;
43311;SDS011;30041;48.300;16.352;2023-08-24T12:00:45;2.90;;;2.60;;
43311;SDS011;30041;48.300;16.352;2023-08-24T12:03:12;5.43;;;2.63;;
43311;SDS011;30041;48.300;16.352;2023-08-24T12:05:38;3.10;;;2.40;;
43311;SDS011;30041;48.300;16.352;2023-08-24T12:08:04;3.40;;;2.40;;
43311;SDS011;30041;48.300;16.352;2023-08-24T12:10:30;5.35;;;2.58;;
43311;SDS011;30041;48.300;16.352;2023-08-24T12:13:03;5.13;;;2.47;;
43311;SDS011;30041;48.300;16.352;2023-08-24T12:15:29;5.45;;;2.85;;
43311;SDS011;30041;48.300;16.352;2023-08-24T12:17:55;6.15;;;2.45;;
43311;SDS011;30041;48.300;16.352;2023-08-24T12:20:21;4.57;;;2.53;;
43311;SDS011;30041;48.300;16.352;2023-08-24T12:22:51;4.00;;;2.70;;
43311;SDS011;30041;48.300;16.352;2023-08-24T12:25:17;4.38;;;2.70;;
43311;SDS011;30041;48.300;16.352;2023-08-24T12:27:43;7.28;;;2.83;;
43311;SDS011;30041;48.300;16.352;2023-08-24T12:30:10;4.90;;;2.80;;
43311;SDS011;30041;48.300;16.352;2023-08-24T12:32:42;5.90;;;3.17;;
43311;SDS011;30041;48.300;16.352;2023-08-24T12:35:13;4.28;;;2.78;;
43311;SDS011;30041;48.300;16.352;2023-08-24T12:37:39;3.63;;;2.80;;
43311;SDS011;30041;48.300;16.352;2023-08-24T12:40:05;4.40;;;3.05;;
43311;SDS011;30041;48.300;16.352;2023-08-24T12:42:31;4.68;;;2.80;;
43311;SDS011;30041;48.300;16.352;2023-08-24T12:44:57;3.28;;;2.65;;
43311;SDS011;30041;48.300;16.352;2023-08-24T12:47:22;3.50;;;2.67;;
43311;SDS011;30041;48.300;16.352;2023-08-24T12:49:48;4.10;;;2.83;;
43311;SDS011;30041;48.300;16.352;2023-08-24T12:52:13;3.40;;;2.70;;
43311;SDS011;30041;48.300;16.352;2023-08-24T12:54:39;3.17;;;2.78;;
43311;SDS011;30041;48.300;16.352;2023-08-24T12:57:04;4.20;;;3.00;;
43311;SDS011;30041;48.300;16.352;2023-08-24T12:59:30;3.60;;;2.83;;
43311;SDS011;30041;48.300;16.352;2023-08-24T13:01:55;3.53;;;3.05;;
43311;SDS011;30041;48.300;16.352;2023-08-24T13:04:20;3.10;;;2.80;;
43311;SDS011;30041;48.300;16.352;2023-08-24T13:06:46;2.90;;;2.45;;
43311;SDS011;30041;48.300;16.352;2023-08-24T13:09:11;4.78;;;3.17;;
43311;SDS011;30041;48.300;16.352;2023-08-24T13:11:37;3.33;;;2.83;;
43311;SDS011;30041;48.300;16.352;2023-08-24T13:14:02;3.75;;;2.97;;
43311;SDS011;30041;48.300;16.352;2023-08-24T13:16:28;3.78;;;3.13;;
43311;SDS011;30041;48.300;16.352;2023-08-24T13:18:53;3.70;;;2.90;;
43311;SDS011;30041;48.300;16.352;2023-08-24T13:21:19;3.67;;;3.08;;
43311;SDS011;30041;48.300;16.352;2023-08-24T13:23:45;3.88;;;2.75;;
43311;SDS011;30041;48.300;16.352;2023-08-24T13:26:18;4.03;;;2.90;;
43311;SDS011;30041;48.300;16.352;2023-08-24T13:28:44;3.33;;;2.70;;
43311;SDS011;30041;48.300;16.352;2023-08-24T13:31:09;2.80;;;2.50;;
43311;SDS011;30041;48.300;16.352;2023-08-24T13:33:35;3.78;;;2.70;;
43311;SDS011;30041;48.300;16.352;2023-08-24T13:36:00;4.38;;;2.97;;
43311;SDS011;30041;48.300;16.352;2023-08-24T13:38:26;3.97;;;3.00;;
43311;SDS011;30041;48.300;16.352;2023-08-24T13:40:51;3.22;;;2.80;;
43311;SDS011;30041;48.300;16.352;2023-08-24T13:43:16;3.70;;;2.88;;
43311;SDS011;30041;48.300;16.352;2023-08-24T13:45:42;4.00;;;3.13;;
43311;SDS011;30041;48.300;16.352;2023-08-24T13:48:08;3.78;;;3.00;;
43311;SDS011;30041;48.300;16.352;2023-08-24T13:50:34;4.30;;;3.05;;
43311;SDS011;30041;48.300;16.352;2023-08-24T13:52:59;5.18;;;2.83;;
43311;SDS011;30041;48.300;16.352;2023-08-24T13:55:24;5.13;;;3.10;;
43311;SDS011;30041;48.300;16.352;2023-08-24T13:57:50;3.38;;;3.00;;
43311;SDS011;30041;48.300;16.352;2023-08-24T14:00:15;5.13;;;2.85;;
43311;SDS011;30041;48.300;16.352;2023-08-24T14:02:41;4.38;;;3.10;;
43311;SDS011;30041;48.300;16.352;2023-08-24T14:05:07;3.20;;;2.80;;
43311;SDS011;30041;48.300;16.352;2023-08-24T14:07:33;3.80;;;2.95;;
43311;SDS011;30041;48.300;16.352;2023-08-24T14:09:58;3.30;;;2.90;;
43311;SDS011;30041;48.300;16.352;2023-08-24T14:12:23;3.30;;;3.00;;
43311;SDS011;30041;48.300;16.352;2023-08-24T14:14:49;4.40;;;2.97;;
43311;SDS011;30041;48.300;16.352;2023-08-24T14:17:14;3.65;;;3.17;;
43311;SDS011;30041;48.300;16.352;2023-08-24T14:19:40;3.20;;;2.90;;
43311;SDS011;30041;48.300;16.352;2023-08-24T14:22:05;3.78;;;3.10;;
43311;SDS011;30041;48.300;16.352;2023-08-24T14:24:31;3.15;;;2.85;;
43311;SDS011;30041;48.300;16.352;2023-08-24T14:26:56;3.83;;;2.70;;
43311;SDS011;30041;48.300;16.352;2023-08-24T14:29:22;3.60;;;3.30;;
43311;SDS011;30041;48.300;16.352;2023-08-24T14:31:47;3.30;;;3.00;;
43311;SDS011;30041;48.300;16.352;2023-08-24T14:34:12;3.47;;;3.03;;
43311;SDS011;30041;48.300;16.352;2023-08-24T14:36:38;3.42;;;3.00;;